Time;durP1;ratioP1;P1;durP2;ratioP2;P2;SDS_P1;SDS_P2;PMS_P1;PMS_P2;Temp;Humidity;BMP_temperature;BMP_pressure;BME280_temperature;BME280_humidity;BME280_pressure;Samples;Min_cycle;Max_cycle;Signal;HPM_P1;HPM_P2
2022/01/06 00:00:10;;;;;;;12.45;2.08;;;;;;;3.06;100.00;97475.63;10516283;28;20508;-63
2022/01/06 00:05:18;;;;;;;13.63;2.45;;;;;;;3.06;100.00;97478.28;10509642;28;20040;-63
2022/01/06 00:10:23;;;;;;;12.57;1.95;;;;;;;3.03;100.00;97468.75;10495907;28;20048;-62
2022/01/06 00:15:33;;;;;;;11.70;2.00;;;;;;;3.01;100.00;97472.56;10513490;28;20039;-63
2022/01/06 00:26:03;;;;;;;8.97;1.80;;;;;;;2.97;100.00;97468.47;10523769;28;20032;-61
2022/01/06 00:31:08;;;;;;;9.75;2.28;;;;;;;2.86;100.00;97512.00;10492175;28;20051;-64
2022/01/06 00:36:11;;;;;;;7.85;1.67;;;;;;;2.42;100.00;97531.66;10514857;28;20052;-62
2022/01/06 00:41:14;;;;;;;5.38;1.77;;;;;;;2.04;100.00;97543.78;10502409;28;20040;-63
2022/01/06 00:46:18;;;;;;;11.85;2.47;;;;;;;1.83;100.00;97539.25;10509736;28;20191;-63
2022/01/06 00:51:22;;;;;;;9.05;1.80;;;;;;;1.71;100.00;97532.31;10497046;28;20047;-63
2022/01/06 00:56:25;;;;;;;11.07;1.80;;;;;;;1.69;100.00;97537.78;10509482;28;20193;-64
2022/01/06 01:01:30;;;;;;;8.48;1.98;;;;;;;1.68;100.00;97538.72;10505932;28;20040;-65
2022/01/06 01:06:34;;;;;;;10.43;2.15;;;;;;;1.88;100.00;97559.28;10494107;28;20143;-63
2022/01/06 01:11:38;;;;;;;12.18;2.03;;;;;;;2.09;100.00;97560.16;10511370;28;20066;-64
2022/01/06 01:16:50;;;;;;;11.30;2.53;;;;;;;2.23;100.00;97553.69;10513006;28;20052;-64
2022/01/06 01:21:54;;;;;;;12.45;2.42;;;;;;;2.31;100.00;97548.56;10517145;28;20048;-64
2022/01/06 01:27:00;;;;;;;19.17;2.50;;;;;;;2.35;100.00;97559.75;10504615;28;20480;-64
2022/01/06 01:32:04;;;;;;;12.52;2.20;;;;;;;2.28;100.00;97562.09;10502335;28;20072;-64
2022/01/06 01:37:08;;;;;;;11.88;1.85;;;;;;;2.22;100.00;97567.09;10513508;28;20131;-63
2022/01/06 01:42:11;;;;;;;11.70;1.88;;;;;;;2.18;100.00;97573.63;10492804;28;20199;-63
2022/01/06 01:47:23;;;;;;;11.55;2.03;;;;;;;2.10;100.00;97579.59;10510326;28;20102;-64
2022/01/06 01:52:26;;;;;;;12.70;2.20;;;;;;;2.06;100.00;97584.31;10492741;28;20048;-62
2022/01/06 01:57:29;;;;;;;12.18;2.20;;;;;;;2.13;100.00;97587.31;10519740;28;20044;-63
2022/01/06 02:02:34;;;;;;;13.52;1.95;;;;;;;2.19;100.00;97583.28;10498821;28;20047;-64
2022/01/06 02:07:40;;;;;;;13.57;2.38;;;;;;;2.22;100.00;97585.69;10504773;28;20044;-63
2022/01/06 02:12:44;;;;;;;13.10;2.28;;;;;;;2.21;100.00;97586.66;10510333;28;20048;-63
2022/01/06 02:17:49;;;;;;;13.18;2.10;;;;;;;2.18;100.00;97581.59;10521981;28;20445;-64
2022/01/06 02:22:54;;;;;;;14.07;2.10;;;;;;;2.23;100.00;97579.41;10480106;28;20041;-64
2022/01/06 02:28:00;;;;;;;16.00;2.15;;;;;;;2.23;100.00;97616.63;10515293;28;20071;-61
2022/01/06 02:33:05;;;;;;;9.82;2.10;;;;;;;2.25;100.00;97612.84;10517525;28;20048;-62
2022/01/06 02:38:11;;;;;;;13.18;2.47;;;;;;;2.34;100.00;97613.91;10500852;28;20067;-68
2022/01/06 02:43:17;;;;;;;13.18;2.15;;;;;;;2.27;100.00;97623.38;10511049;28;20136;-60
2022/01/06 02:48:21;;;;;;;14.50;2.40;;;;;;;2.23;100.00;97632.56;10494891;28;20083;-63
2022/01/06 02:53:26;;;;;;;12.15;2.33;;;;;;;2.08;100.00;97630.19;10487469;28;20054;-60
2022/01/06 02:58:29;;;;;;;18.15;2.45;;;;;;;2.02;100.00;97657.28;10520457;28;20409;-59
2022/01/06 03:03:36;;;;;;;18.13;2.47;;;;;;;1.94;100.00;97654.44;10506079;28;20043;-64
2022/01/06 03:08:41;;;;;;;12.30;2.10;;;;;;;1.93;100.00;97653.56;10509396;28;20044;-64
2022/01/06 03:13:44;;;;;;;16.80;2.60;;;;;;;1.91;100.00;97660.81;10512812;28;20046;-63
2022/01/06 03:18:47;;;;;;;13.45;2.38;;;;;;;1.91;100.00;97665.28;10516778;28;20465;-64
2022/01/06 03:23:52;;;;;;;12.88;2.03;;;;;;;2.00;100.00;97656.56;10512042;28;20114;-63
2022/01/06 03:28:55;;;;;;;17.67;2.70;;;;;;;2.03;100.00;97664.28;10514434;28;20054;-63
2022/01/06 03:33:58;;;;;;;15.40;2.63;;;;;;;2.01;100.00;97663.56;10520609;28;20072;-63
2022/01/06 03:39:04;;;;;;;12.70;2.25;;;;;;;1.99;100.00;97665.50;10492160;28;20336;-64
2022/01/06 03:44:07;;;;;;;11.93;2.13;;;;;;;2.03;100.00;97679.38;10517658;28;20043;-66
2022/01/06 03:49:10;;;;;;;12.63;1.95;;;;;;;1.94;100.00;97702.25;10522325;28;20040;-66
2022/01/06 03:54:15;;;;;;;10.15;1.83;;;;;;;1.61;100.00;97709.28;10522330;28;20579;-64
2022/01/06 03:59:18;;;;;;;18.92;2.38;;;;;;;1.42;100.00;97729.31;10523396;28;20496;-66
2022/01/06 04:04:24;;;;;;;12.10;2.20;;;;;;;1.46;100.00;97728.13;10517582;28;20469;-66
2022/01/06 04:09:29;;;;;;;16.15;2.05;;;;;;;1.41;100.00;97740.91;10518661;28;20123;-66
2022/01/06 04:14:32;;;;;;;14.57;2.13;;;;;;;1.33;100.00;97751.28;10522185;28;20039;-64
2022/01/06 04:19:36;;;;;;;15.23;2.17;;;;;;;1.22;100.00;97770.69;10513725;28;20127;-63
2022/01/06 04:24:41;;;;;;;14.65;2.28;;;;;;;1.00;100.00;97779.47;10516775;28;20115;-66
2022/01/06 04:29:44;;;;;;;14.77;2.10;;;;;;;0.90;100.00;97782.78;10522828;28;20516;-61
2022/01/06 04:34:47;;;;;;;9.70;1.80;;;;;;;0.96;100.00;97813.31;10498279;28;20087;-62
2022/01/06 04:39:52;;;;;;;11.48;2.03;;;;;;;0.94;100.00;97814.38;10507561;28;20419;-62
2022/01/06 04:44:55;;;;;;;13.48;2.03;;;;;;;0.87;100.00;97841.38;10518907;28;20036;-64
2022/01/06 04:49:58;;;;;;;9.45;1.80;;;;;;;0.84;100.00;97846.91;10505128;28;20056;-61
2022/01/06 04:55:03;;;;;;;12.27;1.70;;;;;;;0.81;100.00;97863.03;10511611;28;20123;-65
2022/01/06 05:00:08;;;;;;;6.78;1.52;;;;;;;0.78;100.00;97873.88;10521398;28;20105;-62
2022/01/06 05:05:13;;;;;;;10.02;1.80;;;;;;;0.78;100.00;97887.13;10504590;28;20060;-60
2022/01/06 05:10:23;;;;;;;8.68;1.83;;;;;;;0.79;100.00;97907.38;10497391;28;20048;-65
2022/01/06 05:15:27;;;;;;;10.27;2.00;;;;;;;0.74;100.00;97918.31;10495353;28;20154;-65
2022/01/06 05:20:35;;;;;;;6.95;1.80;;;;;;;0.65;100.00;97928.78;10509119;28;20446;-65
2022/01/06 05:25:40;;;;;;;6.72;1.73;;;;;;;0.55;100.00;97942.66;10515372;28;20068;-65
2022/01/06 05:30:43;;;;;;;5.60;2.20;;;;;;;0.53;100.00;97933.13;10512208;28;20075;-65
2022/01/06 05:35:47;;;;;;;5.60;2.08;;;;;;;0.42;100.00;97957.75;10518886;28;20067;-65
2022/01/06 05:40:51;;;;;;;7.88;2.40;;;;;;;0.35;100.00;97960.00;10526810;28;20118;-64
2022/01/06 05:45:58;;;;;;;3.75;2.30;;;;;;;0.28;100.00;97978.13;10523997;28;20135;-62
2022/01/06 05:51:01;;;;;;;4.40;1.60;;;;;;;0.16;100.00;97984.28;10496704;28;20047;-66
2022/01/06 05:56:09;;;;;;;7.88;2.20;;;;;;;0.15;100.00;98006.44;10520957;28;20155;-64
2022/01/06 06:01:13;;;;;;;4.93;2.10;;;;;;;0.02;100.00;98024.13;10495572;28;20143;-66
2022/01/06 06:06:16;;;;;;;8.30;2.13;;;;;;;-0.08;100.00;98037.97;10524396;28;20124;-65
2022/01/06 06:11:21;;;;;;;10.25;1.75;;;;;;;-0.17;100.00;98039.44;10499342;28;20121;-65
2022/01/06 06:16:24;;;;;;;6.97;1.90;;;;;;;-0.22;100.00;98046.00;10499418;28;20081;-65
2022/01/06 06:21:28;;;;;;;4.25;1.80;;;;;;;-0.28;100.00;98036.66;10525557;28;20052;-61
2022/01/06 06:26:33;;;;;;;6.35;2.20;;;;;;;-0.34;100.00;98051.16;10520572;28;20048;-67
2022/01/06 06:31:36;;;;;;;5.15;2.50;;;;;;;-0.40;100.00;98078.03;10521606;28;20099;-65
2022/01/06 06:36:40;;;;;;;4.78;2.60;;;;;;;-0.46;100.00;98089.03;10518287;28;20039;-64
2022/01/06 06:41:44;;;;;;;5.53;3.15;;;;;;;-0.56;100.00;98099.34;10499655;28;20048;-65
2022/01/06 06:46:47;;;;;;;7.28;2.90;;;;;;;-0.62;100.00;98107.69;10520274;28;20040;-61
2022/01/06 06:51:50;;;;;;;6.68;3.03;;;;;;;-0.68;100.00;98111.59;10523503;28;20044;-60
2022/01/06 06:56:56;;;;;;;4.85;2.95;;;;;;;-0.74;100.00;98117.25;10512063;28;20106;-62
2022/01/06 07:01:59;;;;;;;6.55;3.22;;;;;;;-0.80;100.00;98123.78;10505856;28;20109;-62
2022/01/06 07:07:03;;;;;;;5.85;2.72;;;;;;;-0.84;100.00;98138.16;10522738;28;20055;-60
2022/01/06 07:12:10;;;;;;;5.28;2.42;;;;;;;-0.90;100.00;98143.81;10523811;28;20079;-59
2022/01/06 07:17:14;;;;;;;6.47;2.80;;;;;;;-0.93;100.00;98159.88;10524063;28;20036;-60
2022/01/06 07:22:18;;;;;;;5.97;2.33;;;;;;;-0.98;100.00;98173.38;10524816;28;20047;-63
2022/01/06 07:27:23;;;;;;;7.60;2.70;;;;;;;-1.02;100.00;98176.31;10524962;28;20052;-60
2022/01/06 07:32:26;;;;;;;5.40;2.20;;;;;;;-1.05;100.00;98192.34;10516998;28;20131;-61
2022/01/06 07:37:32;;;;;;;6.80;2.63;;;;;;;-1.12;100.00;98210.41;10510920;28;20032;-59
2022/01/06 07:42:36;;;;;;;7.03;2.35;;;;;;;-1.14;100.00;98214.94;10514811;28;20048;-60
2022/01/06 07:47:54;;;;;;;6.28;2.78;;;;;;;-1.15;100.00;98213.22;10511686;28;20037;-60
2022/01/06 07:52:57;;;;;;;8.00;2.90;;;;;;;-1.16;100.00;98236.16;10518244;28;20080;-60
2022/01/06 07:58:03;;;;;;;7.72;2.67;;;;;;;-1.16;100.00;98236.16;10509771;28;20061;-60
2022/01/06 08:03:06;;;;;;;8.20;2.55;;;;;;;-1.18;100.00;98245.13;10508222;28;20041;-59
2022/01/06 08:08:10;;;;;;;6.72;2.80;;;;;;;-1.18;100.00;98240.72;10501903;28;20058;-61
2022/01/06 08:13:15;;;;;;;7.30;3.35;;;;;;;-1.16;100.00;98248.53;10518197;28;20127;-61
2022/01/06 08:18:18;;;;;;;7.00;2.03;;;;;;;-1.10;100.00;98264.88;10525009;28;20136;-60
2022/01/06 08:23:21;;;;;;;5.60;1.88;;;;;;;-1.01;100.00;98263.50;10524660;28;20080;-61
2022/01/06 08:28:25;;;;;;;6.07;2.00;;;;;;;-0.96;100.00;98274.63;10516958;28;20079;-60
2022/01/06 08:33:29;;;;;;;5.97;2.22;;;;;;;-0.91;100.00;98281.44;10508188;28;20097;-59
2022/01/06 08:38:32;;;;;;;9.10;1.70;;;;;;;-0.80;100.00;98297.50;10527156;28;20123;-61
2022/01/06 08:43:37;;;;;;;6.82;1.60;;;;;;;-0.72;100.00;98305.81;10511271;28;20447;-61
2022/01/06 08:48:40;;;;;;;3.92;1.50;;;;;;;-0.67;100.00;98309.06;10532533;28;20052;-60
2022/01/06 08:53:43;;;;;;;5.85;1.85;;;;;;;-0.63;100.00;98317.66;10499257;28;20052;-61
2022/01/06 08:58:48;;;;;;;4.40;1.60;;;;;;;-0.60;100.00;98320.13;10526332;28;20496;-60
2022/01/06 09:03:51;;;;;;;5.22;1.60;;;;;;;-0.54;100.00;98322.38;10519307;28;20032;-64
2022/01/06 09:08:54;;;;;;;4.70;1.70;;;;;;;-0.50;100.00;98326.56;10525369;28;20052;-61
2022/01/06 09:14:00;;;;;;;3.20;1.52;;;;;;;-0.42;100.00;98339.31;10528191;28;20150;-59
2022/01/06 09:19:03;;;;;;;3.53;1.50;;;;;;;-0.37;100.00;98346.97;10522251;28;20056;-59
2022/01/06 09:24:07;;;;;;;8.98;1.67;;;;;;;-0.32;100.00;98360.75;10526678;28;20932;-61
2022/01/06 09:29:13;;;;;;;5.90;1.90;;;;;;;-0.24;100.00;98347.94;10529702;28;20047;-59
2022/01/06 09:34:19;;;;;;;5.80;1.60;;;;;;;-0.18;100.00;98354.63;10518395;28;20075;-60
2022/01/06 09:39:23;;;;;;;2.42;1.35;;;;;;;-0.10;100.00;98365.59;10516151;28;20047;-60
2022/01/06 09:44:29;;;;;;;8.27;1.40;;;;;;;-0.03;100.00;98368.72;10522419;28;20044;-60
2022/01/06 09:49:37;;;;;;;7.38;1.80;;;;;;;0.04;100.00;98369.19;10517178;28;20033;-60
2022/01/06 09:54:42;;;;;;;4.05;1.33;;;;;;;0.09;100.00;98375.03;10513068;28;20044;-60
2022/01/06 09:59:46;;;;;;;3.22;1.23;;;;;;;0.18;100.00;98374.44;10543177;23;20126;-80
2022/01/06 10:04:59;;;;;;;5.03;1.30;;;;;;;0.27;100.00;98371.22;10739291;22;20062;-51
2022/01/06 10:10:06;;;;;;;6.72;1.38;;;;;;;0.35;100.00;98369.88;10526107;28;20048;-54
2022/01/06 10:15:18;;;;;;;4.22;1.20;;;;;;;0.44;100.00;98379.88;10520582;28;20036;-55
2022/01/06 10:20:23;;;;;;;4.47;1.30;;;;;;;0.50;100.00;98381.28;10514991;28;20155;-54
2022/01/06 10:25:30;;;;;;;5.78;1.27;;;;;;;0.56;100.00;98381.75;10513485;28;20119;-55
2022/01/06 10:30:54;;;;;;;3.92;1.08;;;;;;;0.64;100.00;98386.56;10510628;28;20044;-54
2022/01/06 10:36:05;;;;;;;3.55;0.88;;;;;;;0.67;100.00;98386.38;10501036;28;20128;-53
2022/01/06 10:41:11;;;;;;;3.50;1.10;;;;;;;0.72;100.00;98383.41;10517230;28;20127;-56
2022/01/06 10:46:15;;;;;;;5.95;1.20;;;;;;;0.81;100.00;98388.09;10516201;28;20036;-59
2022/01/06 10:51:32;;;;;;;6.22;1.30;;;;;;;0.80;100.00;98386.41;10492940;28;20047;-56
2022/01/06 10:56:35;;;;;;;6.38;1.10;;;;;;;0.83;100.00;98402.13;10511190;28;20119;-54
2022/01/06 11:01:39;;;;;;;4.93;1.25;;;;;;;0.92;100.00;98412.13;10514045;28;20131;-57
2022/01/06 11:06:43;;;;;;;5.10;1.13;;;;;;;0.99;100.00;98412.56;10523944;28;20039;-53
2022/01/06 11:17:09;;;;;;;4.97;1.13;;;;;;;1.12;100.00;98412.59;10495460;28;20044;-54
2022/01/06 11:22:13;;;;;;;4.95;1.13;;;;;;;1.14;100.00;98423.97;10522703;28;20078;-59
2022/01/06 11:27:17;;;;;;;4.10;1.00;;;;;;;1.20;100.00;98422.72;10513049;28;20032;-54
2022/01/06 11:32:23;;;;;;;7.22;1.27;;;;;;;1.25;100.00;98417.09;10509215;28;20242;-60
2022/01/06 11:37:38;;;;;;;3.88;1.15;;;;;;;1.33;100.00;98436.88;10554664;28;20044;-60
2022/01/06 11:42:42;;;;;;;2.15;1.00;;;;;;;1.36;100.00;98438.47;10558204;28;20055;-58
2022/01/06 11:47:48;;;;;;;4.97;1.02;;;;;;;1.40;100.00;98426.69;10511307;28;20055;-57
2022/01/06 11:52:53;;;;;;;5.00;1.02;;;;;;;1.43;100.00;98425.63;10507818;28;20155;-54
2022/01/06 11:58:08;;;;;;;3.65;0.90;;;;;;;1.44;100.00;98428.19;10524507;28;20058;-54
2022/01/06 12:03:14;;;;;;;5.10;1.00;;;;;;;1.47;100.00;98432.44;10526104;28;20047;-59
2022/01/06 12:08:18;;;;;;;2.38;1.02;;;;;;;1.57;100.00;98438.81;10518353;28;20159;-57
2022/01/06 12:13:21;;;;;;;6.43;1.02;;;;;;;1.36;100.00;98435.81;10535014;28;20122;-60
2022/01/06 12:18:28;;;;;;;6.38;1.30;;;;;;;1.29;100.00;98438.03;10522112;28;20071;-57
2022/01/06 12:23:32;;;;;;;6.82;1.20;;;;;;;1.24;100.00;98442.78;10521046;28;20078;-56
2022/01/06 12:28:46;;;;;;;4.32;1.10;;;;;;;1.25;100.00;98443.63;10521194;28;20048;-57
2022/01/06 12:33:58;;;;;;;3.67;0.88;;;;;;;1.40;100.00;98432.00;10485641;28;20143;-57
2022/01/06 12:39:08;;;;;;;3.42;0.80;;;;;;;1.43;100.00;98438.91;10476741;28;20095;-58
2022/01/06 12:44:17;;;;;;;4.60;0.82;;;;;;;1.53;100.00;98437.31;10480149;28;20048;-56
2022/01/06 12:49:23;;;;;;;3.47;0.80;;;;;;;1.64;100.00;98428.66;10464669;28;20086;-54
2022/01/06 12:54:30;;;;;;;3.50;0.88;;;;;;;1.69;100.00;98422.06;10481068;28;20123;-52
2022/01/06 12:59:36;;;;;;;4.55;0.90;;;;;;;1.76;100.00;98434.94;10459738;28;20041;-53
2022/01/06 13:04:46;;;;;;;3.90;0.90;;;;;;;1.78;100.00;98433.00;10482765;28;20426;-58
2022/01/06 13:09:56;;;;;;;4.03;0.90;;;;;;;1.81;100.00;98441.63;10459302;28;20193;-55
2022/01/06 13:15:02;;;;;;;2.08;0.82;;;;;;;1.88;100.00;98446.50;10479376;28;20497;-56
2022/01/06 13:20:12;;;;;;;3.90;0.80;;;;;;;1.98;100.00;98455.53;10462060;28;20129;-54
2022/01/06 13:25:17;;;;;;;4.32;1.00;;;;;;;2.03;100.00;98468.50;10475015;28;20071;-56
2022/01/06 13:30:30;;;;;;;3.15;0.80;;;;;;;1.96;100.00;98476.91;10482191;28;20051;-53
2022/01/06 13:35:46;;;;;;;4.38;1.10;;;;;;;2.08;100.00;98474.38;10476347;28;20064;-56
2022/01/06 13:40:51;;;;;;;3.05;0.90;;;;;;;2.16;100.00;98472.03;10472596;28;20055;-58
2022/01/06 13:45:55;;;;;;;5.82;1.10;;;;;;;2.15;100.00;98460.56;10476304;28;20144;-57
2022/01/06 13:51:12;;;;;;;2.88;0.98;;;;;;;2.23;100.00;98461.81;10459677;28;20050;-57
2022/01/06 13:56:19;;;;;;;4.43;0.93;;;;;;;2.28;100.00;98462.34;10454348;28;20068;-52
2022/01/06 14:01:27;;;;;;;5.25;1.00;;;;;;;2.28;100.00;98457.88;10463397;28;20059;-53
2022/01/06 14:06:31;;;;;;;5.43;1.10;;;;;;;2.40;100.00;98463.28;10476236;28;20055;-57
2022/01/06 14:11:35;;;;;;;3.30;0.85;;;;;;;2.38;100.00;98460.75;10479945;28;20821;-58
2022/01/06 14:16:38;;;;;;;3.40;0.95;;;;;;;2.36;100.00;98475.06;10481467;28;20036;-56
2022/01/06 14:21:42;;;;;;;4.45;1.30;;;;;;;2.40;100.00;98477.44;10462143;28;20148;-54
2022/01/06 14:26:45;;;;;;;6.85;0.82;;;;;;;2.45;100.00;98491.25;10485407;28;20119;-60
2022/01/06 14:31:49;;;;;;;4.43;1.10;;;;;;;2.49;100.00;98493.69;10479833;28;20060;-56
2022/01/06 14:36:53;;;;;;;4.10;1.17;;;;;;;2.46;100.00;98494.78;10477621;28;20122;-54
2022/01/06 14:41:57;;;;;;;2.22;0.90;;;;;;;2.55;100.00;98496.78;10464403;28;20121;-57
2022/01/06 14:47:00;;;;;;;5.10;0.95;;;;;;;2.63;100.00;98501.56;10470367;28;20041;-55
2022/01/06 14:52:05;;;;;;;4.82;1.02;;;;;;;2.66;100.00;98505.78;10484492;28;20416;-56
2022/01/06 14:57:10;;;;;;;4.70;1.35;;;;;;;2.59;100.00;98513.34;10479918;28;20044;-56
2022/01/06 15:02:13;;;;;;;4.30;1.77;;;;;;;2.53;100.00;98535.09;10481101;28;20124;-59
2022/01/06 15:07:18;;;;;;;5.22;1.80;;;;;;;2.40;100.00;98538.59;10482540;28;20063;-59
2022/01/06 15:12:22;;;;;;;5.13;1.80;;;;;;;2.23;100.00;98539.78;10462480;28;20157;-53
2022/01/06 15:17:25;;;;;;;8.95;1.85;;;;;;;2.08;100.00;98538.97;10462733;28;20037;-60
2022/01/06 15:22:29;;;;;;;4.55;1.83;;;;;;;1.91;100.00;98558.72;10474287;28;20086;-58
2022/01/06 15:27:33;;;;;;;6.22;2.00;;;;;;;1.74;100.00;98567.81;10481483;28;20535;-58
2022/01/06 15:32:36;;;;;;;6.53;1.80;;;;;;;1.63;100.00;98570.34;10479040;28;20115;-54
2022/01/06 15:37:41;;;;;;;6.22;2.10;;;;;;;1.51;100.00;98567.53;10482846;28;20044;-54
2022/01/06 15:42:44;;;;;;;6.97;2.15;;;;;;;1.39;100.00;98573.66;10454971;28;20048;-54
2022/01/06 15:47:51;;;;;;;9.05;4.28;;;;;;;1.26;100.00;98578.91;10473353;28;20067;-56
2022/01/06 15:52:56;;;;;;;8.77;4.30;;;;;;;1.13;100.00;98581.47;10485724;28;20061;-63
2022/01/06 15:57:59;;;;;;;12.73;4.63;;;;;;;1.02;100.00;98586.63;10464308;28;20409;-64
2022/01/06 16:08:25;;;;;;;20.07;10.37;;;;;;;0.80;100.00;98587.97;10393679;28;20073;-58
2022/01/06 16:13:28;;;;;;;13.90;5.07;;;;;;;0.65;100.00;98578.31;10412038;28;20068;-57
2022/01/06 16:18:31;;;;;;;10.43;3.83;;;;;;;0.59;100.00;98588.34;10406285;28;20128;-57
2022/01/06 16:23:36;;;;;;;9.65;3.50;;;;;;;0.47;100.00;98599.69;10410722;28;20478;-55
2022/01/06 16:28:40;;;;;;;11.00;3.17;;;;;;;0.38;100.00;98602.91;10407620;28;20037;-59
2022/01/06 16:33:44;;;;;;;7.97;2.65;;;;;;;0.26;100.00;98597.41;10411455;28;20048;-59
2022/01/06 16:38:49;;;;;;;5.18;1.73;;;;;;;0.14;100.00;98598.13;10412017;28;20522;-58
2022/01/06 16:43:52;;;;;;;4.28;1.60;;;;;;;0.09;100.00;98605.50;10418318;28;20148;-52
2022/01/06 16:48:55;;;;;;;5.78;1.85;;;;;;;0.05;100.00;98611.94;10393736;28;20052;-54
2022/01/06 16:54:00;;;;;;;8.93;1.88;;;;;;;-0.01;100.00;98608.69;10424035;28;20063;-52
2022/01/06 16:59:03;;;;;;;6.63;1.88;;;;;;;-0.04;100.00;98605.38;10435929;28;20041;-55
2022/01/06 17:04:06;;;;;;;6.60;1.50;;;;;;;-0.07;100.00;98609.06;10426995;28;20116;-52
2022/01/06 17:09:12;;;;;;;6.22;1.70;;;;;;;-0.14;100.00;98613.00;10466879;28;20398;-55
2022/01/06 17:14:15;;;;;;;4.70;1.98;;;;;;;-0.22;100.00;98617.88;10485972;28;20148;-55
2022/01/06 17:19:18;;;;;;;7.90;2.40;;;;;;;-0.35;100.00;98615.94;10482551;28;20455;-59
2022/01/06 17:24:23;;;;;;;6.38;2.50;;;;;;;-0.38;100.00;98625.84;10474526;28;20557;-59
2022/01/06 17:29:26;;;;;;;7.63;2.42;;;;;;;-0.44;100.00;98628.84;10477687;28;20064;-57
2022/01/06 17:34:49;;;;;;;8.68;2.72;;;;;;;-0.50;100.00;98628.25;10481879;28;20103;-55
2022/01/06 17:39:53;;;;;;;7.43;2.67;;;;;;;-0.56;100.00;98630.38;10462708;28;20053;-54
2022/01/06 17:44:57;;;;;;;7.65;2.42;;;;;;;-0.64;100.00;98638.75;10453361;28;20076;-58
2022/01/06 17:50:00;;;;;;;7.07;2.85;;;;;;;-0.68;100.00;98646.00;10461631;28;20496;-57
2022/01/06 17:55:05;;;;;;;8.00;2.80;;;;;;;-0.72;100.00;98644.47;10464675;28;20061;-57
2022/01/06 18:00:09;;;;;;;8.10;3.22;;;;;;;-0.76;100.00;98652.66;10461055;28;20128;-54
2022/01/06 18:05:16;;;;;;;6.35;2.90;;;;;;;-0.81;100.00;98655.56;10467886;28;20056;-57
2022/01/06 18:15:42;;;;;;;7.90;2.90;;;;;;;-0.91;100.00;98660.47;10479078;28;20050;-51
2022/01/06 18:20:46;;;;;;;8.00;2.45;;;;;;;-0.94;100.00;98661.50;10483347;28;20044;-54
2022/01/06 18:25:50;;;;;;;9.52;2.65;;;;;;;-0.97;100.00;98656.38;10476084;28;20064;-57
2022/01/06 18:30:54;;;;;;;8.65;2.70;;;;;;;-1.00;100.00;98658.34;10472450;28;20047;-58
2022/01/06 18:35:58;;;;;;;8.30;2.90;;;;;;;-1.06;100.00;98656.88;10481931;28;20040;-59
2022/01/06 18:41:03;;;;;;;9.15;2.90;;;;;;;-1.11;100.00;98658.91;10478375;28;20093;-60
2022/01/06 18:46:07;;;;;;;6.80;2.72;;;;;;;-1.13;100.00;98658.16;10472098;28;20065;-59
2022/01/06 18:51:11;;;;;;;7.57;2.50;;;;;;;-1.17;100.00;98648.66;10474404;28;20044;-58
2022/01/06 18:56:16;;;;;;;8.25;2.97;;;;;;;-1.21;100.00;98636.53;10474483;28;20041;-61
2022/01/06 19:01:19;;;;;;;11.02;3.88;;;;;;;-1.27;100.00;98643.88;10485513;28;20041;-58
2022/01/06 19:06:24;;;;;;;10.20;3.30;;;;;;;-1.30;100.00;98651.13;10479900;28;20063;-60
2022/01/06 19:11:29;;;;;;;7.50;3.00;;;;;;;-1.31;100.00;98644.13;10491230;28;20075;-56
2022/01/06 19:16:32;;;;;;;7.95;3.20;;;;;;;-1.37;100.00;98645.31;10519812;28;20070;-59
2022/01/06 19:21:35;;;;;;;7.35;2.88;;;;;;;-1.41;100.00;98641.94;10521036;28;20110;-58
2022/01/06 19:26:39;;;;;;;9.32;3.00;;;;;;;-1.42;100.00;98656.13;10476861;28;20124;-58
2022/01/06 19:31:42;;;;;;;10.82;3.15;;;;;;;-1.47;100.00;98670.50;10481485;28;20136;-56
2022/01/06 19:36:46;;;;;;;9.13;4.68;;;;;;;-1.47;100.00;98673.13;10474253;28;20040;-62
2022/01/06 19:41:51;;;;;;;7.80;3.20;;;;;;;-1.49;100.00;98675.84;10443322;28;20076;-57
2022/01/06 19:46:54;;;;;;;9.40;3.10;;;;;;;-1.48;100.00;98685.47;10436468;28;21033;-61
2022/01/06 19:51:57;;;;;;;6.68;2.47;;;;;;;-1.51;100.00;98685.63;10464211;28;20068;-60
2022/01/06 19:57:22;;;;;;;6.03;2.75;;;;;;;-1.52;100.00;98688.38;10480009;28;20044;-59
2022/01/06 20:02:25;;;;;;;7.38;2.40;;;;;;;-1.55;100.00;98682.28;10478299;28;20139;-58
2022/01/06 20:07:28;;;;;;;8.95;2.80;;;;;;;-1.58;100.00;98687.72;10442404;28;20509;-59
2022/01/06 20:12:33;;;;;;;7.85;2.75;;;;;;;-1.58;100.00;98693.00;10429437;28;20053;-54
2022/01/06 20:17:36;;;;;;;5.78;2.80;;;;;;;-1.62;100.00;98702.06;10427629;28;20064;-58
2022/01/06 20:22:43;;;;;;;8.32;2.88;;;;;;;-1.65;100.00;98691.63;10423620;28;20041;-59
2022/01/06 20:34:41;;;;;;;12.07;3.03;;;;;;;-1.75;100.00;98698.31;10419702;28;20450;-56
2022/01/06 20:39:44;;;;;;;10.32;3.17;;;;;;;-1.78;100.00;98683.47;10434048;28;20128;-63
2022/01/06 20:44:48;;;;;;;7.45;2.92;;;;;;;-1.78;100.00;98693.19;10420530;28;20068;-54
2022/01/06 20:55:36;;;;;;;6.78;3.00;;;;;;;-1.79;100.00;98676.50;10407973;28;20045;-59
2022/01/06 21:00:41;;;;;;;7.85;3.10;;;;;;;-1.79;100.00;98680.91;10409126;28;20557;-60
2022/01/06 21:05:46;;;;;;;10.60;3.35;;;;;;;-1.83;100.00;98676.72;10433655;28;20070;-60
2022/01/06 21:10:49;;;;;;;10.50;3.00;;;;;;;-1.83;100.00;98682.84;10444884;28;20044;-59
2022/01/06 21:15:53;;;;;;;6.72;2.85;;;;;;;-1.81;100.00;98674.84;10459083;28;20125;-59
2022/01/06 21:20:58;;;;;;;7.32;3.10;;;;;;;-1.83;100.00;98679.38;10458253;28;20568;-59
2022/01/06 21:26:02;;;;;;;9.15;3.15;;;;;;;-1.89;100.00;98677.88;10446681;28;20044;-61
2022/01/06 21:31:06;;;;;;;8.15;2.90;;;;;;;-1.87;100.00;98671.59;10447768;28;20128;-56
2022/01/06 21:36:11;;;;;;;6.90;3.00;;;;;;;-1.84;100.00;98669.72;10456090;28;20047;-60
2022/01/06 21:41:14;;;;;;;7.15;3.00;;;;;;;-1.86;100.00;98662.72;10447595;28;20417;-60
2022/01/06 21:46:18;;;;;;;7.50;3.22;;;;;;;-1.89;100.00;98662.03;10457269;28;20135;-58
2022/01/06 21:51:22;;;;;;;5.97;3.05;;;;;;;-1.92;100.00;98656.91;10458540;28;20055;-56
2022/01/06 21:56:26;;;;;;;8.05;3.30;;;;;;;-1.96;100.00;98656.22;10460564;28;20407;-59
2022/01/06 22:01:30;;;;;;;9.60;2.95;;;;;;;-2.00;100.00;98652.00;10457234;28;20064;-53
2022/01/06 22:06:35;;;;;;;6.43;2.80;;;;;;;-2.03;100.00;98654.78;10485282;23;20156;-61
2022/01/06 22:11:42;;;;;;;7.03;2.65;;;;;;;-2.02;100.00;98659.13;10501777;28;20044;-64
2022/01/06 22:16:46;;;;;;;6.78;2.70;;;;;;;-2.03;100.00;98653.00;10486261;28;20128;-62
2022/01/06 22:21:50;;;;;;;10.02;2.78;;;;;;;-2.03;100.00;98647.72;10482710;28;20957;-65
2022/01/06 22:26:53;;;;;;;8.93;2.70;;;;;;;-2.04;100.00;98645.16;10491924;28;20118;-61
2022/01/06 22:31:56;;;;;;;6.55;2.75;;;;;;;-2.05;100.00;98646.06;10498632;28;20119;-63
2022/01/06 22:37:03;;;;;;;8.05;2.70;;;;;;;-2.11;100.00;98641.97;10493463;28;20129;-64
2022/01/06 22:42:07;;;;;;;6.03;2.60;;;;;;;-2.13;100.00;98635.94;10514957;28;20123;-64
2022/01/06 22:47:10;;;;;;;6.60;2.67;;;;;;;-2.14;100.00;98626.28;10512394;28;20036;-62
2022/01/06 22:52:15;;;;;;;4.93;2.22;;;;;;;-2.17;100.00;98621.16;10517062;28;20484;-64
2022/01/06 22:57:18;;;;;;;9.30;2.72;;;;;;;-2.17;100.00;98622.00;10523645;28;20082;-61
2022/01/06 23:02:21;;;;;;;6.63;2.60;;;;;;;-2.18;100.00;98619.44;10490697;28;20131;-59
2022/01/06 23:07:26;;;;;;;7.18;2.50;;;;;;;-2.17;100.00;98622.00;10492224;28;20080;-61
2022/01/06 23:12:29;;;;;;;9.27;2.70;;;;;;;-2.18;100.00;98622.97;10484404;28;20123;-61
2022/01/06 23:17:32;;;;;;;5.03;2.33;;;;;;;-2.12;100.00;98623.56;10487910;28;20059;-60
2022/01/06 23:22:37;;;;;;;7.22;2.30;;;;;;;-2.08;100.00;98630.41;10491213;28;20492;-59
2022/01/06 23:27:41;;;;;;;7.22;2.90;;;;;;;-2.09;100.00;98626.06;10473430;28;20075;-60
2022/01/06 23:32:45;;;;;;;11.23;3.70;;;;;;;-2.10;100.00;98627.84;10493905;28;20412;-60
2022/01/06 23:37:49;;;;;;;10.50;2.58;;;;;;;-2.12;100.00;98623.56;10491419;28;20048;-61
2022/01/06 23:42:52;;;;;;;8.32;2.97;;;;;;;-2.13;100.00;98613.94;10498057;28;20123;-61
2022/01/06 23:47:56;;;;;;;8.55;2.67;;;;;;;-2.17;100.00;98607.97;10498580;28;20115;-60
2022/01/06 23:53:00;;;;;;;9.05;2.63;;;;;;;-2.20;100.00;98608.97;10493268;28;20128;-61
2022/01/06 23:58:03;;;;;;;8.98;2.47;;;;;;;-2.18;100.00;98607.13;10500166;28;20116;-60
